Terminal Aerodrome Forecast
Issued by NWS

Home | Current Version | Previous Version | Text Only | Print | Product List | Glossary On
Versions: 1 2 3 4 5 6 7 8 9 10 11 12 13 14 15 16 17
000
FTUS44 KBMX 201100
TAFTCL
TAF
KTCL 201136Z 2012/2112 35006KT P6SM BKN045
     FM201400 36005KT P6SM SCT050
     FM201700 36005KT P6SM BKN060
     FM211000 02002KT 5SM BR SCT008 BKN040=

USA.gov is the U.S. government's official web portal to all federal, state and local government web resources and services.